Time;durP1;ratioP1;P1;durP2;ratioP2;P2;SDS_P1;SDS_P2;PMS_P1;PMS_P2;Temp;Humidity;BMP_temperature;BMP_pressure;BME280_temperature;BME280_humidity;BME280_pressure;Samples;Min_cycle;Max_cycle;Signal;HPM_P1;HPM_P2
2021/03/02 00:00:18;;;;;;;17.85;12.77;;;2.90;99.90;;;;;;2072097;28;20022;-76
2021/03/02 00:01:18;;;;;;;16.17;13.10;;;3.00;99.90;;;;;;2064627;28;20022;-75
2021/03/02 00:02:19;;;;;;;16.05;12.20;;;2.90;99.90;;;;;;2064619;28;20410;-75
2021/03/02 00:03:21;;;;;;;16.35;12.48;;;2.90;99.90;;;;;;2064728;28;20026;-76
2021/03/02 00:04:22;;;;;;;18.65;13.93;;;2.90;99.90;;;;;;2064490;28;20091;-76
2021/03/02 00:05:23;;;;;;;21.42;12.35;;;2.90;99.90;;;;;;2064484;28;20033;-76
2021/03/02 00:06:24;;;;;;;17.67;13.00;;;2.90;99.90;;;;;;2064463;28;20466;-76
2021/03/02 00:07:27;;;;;;;19.83;13.00;;;2.90;99.90;;;;;;2064341;28;20029;-76
2021/03/02 00:08:28;;;;;;;18.85;11.60;;;2.90;99.90;;;;;;2064347;28;20022;-76
2021/03/02 00:09:29;;;;;;;18.75;12.43;;;2.90;99.90;;;;;;2064721;28;20022;-75
2021/03/02 00:10:29;;;;;;;16.38;12.77;;;2.90;99.90;;;;;;2064442;28;20046;-75
2021/03/02 00:11:30;;;;;;;21.52;13.57;;;2.90;99.90;;;;;;2064450;28;20030;-76
2021/03/02 00:12:32;;;;;;;15.32;12.00;;;2.90;99.90;;;;;;2064585;28;20692;-76
2021/03/02 00:13:33;;;;;;;19.13;12.60;;;2.90;99.90;;;;;;2064577;28;20030;-75
2021/03/02 00:14:35;;;;;;;22.90;14.85;;;2.80;99.90;;;;;;2064639;28;20022;-76
2021/03/02 00:15:36;;;;;;;17.77;13.07;;;2.80;99.90;;;;;;2064473;28;20030;-75
2021/03/02 00:16:41;;;;;;;17.77;12.20;;;2.80;99.90;;;;;;2064338;28;20042;-75
2021/03/02 00:17:45;;;;;;;16.02;12.32;;;2.80;99.90;;;;;;2064099;28;20517;-75
2021/03/02 00:18:52;;;;;;;20.38;14.75;;;2.80;99.90;;;;;;2064126;28;20109;-76
2021/03/02 00:20:04;;;;;;;17.67;12.75;;;2.80;99.90;;;;;;2071958;28;20028;-75
2021/03/02 00:21:16;;;;;;;16.33;12.98;;;2.80;99.90;;;;;;2070170;28;20034;-76
2021/03/02 00:22:24;;;;;;;15.57;11.98;;;2.80;99.90;;;;;;2072032;28;20065;-74
2021/03/02 00:23:46;;;;;;;15.80;12.77;;;2.80;99.90;;;;;;2071113;28;20933;-75
2021/03/02 00:24:53;;;;;;;19.85;14.02;;;2.70;99.90;;;;;;2071892;28;20555;-74
2021/03/02 00:25:58;;;;;;;17.30;13.43;;;2.70;99.90;;;;;;2064070;28;20759;-76
2021/03/02 00:26:59;;;;;;;22.02;13.57;;;2.70;99.90;;;;;;2063446;28;20034;-75
2021/03/02 00:28:06;;;;;;;16.92;13.00;;;2.70;99.90;;;;;;2063193;28;20023;-76
2021/03/02 00:29:06;;;;;;;16.40;11.85;;;2.70;99.90;;;;;;2064110;28;20019;-75
2021/03/02 00:30:08;;;;;;;19.65;13.23;;;2.70;99.90;;;;;;2071865;28;20026;-74
2021/03/02 00:31:09;;;;;;;18.13;12.75;;;2.70;99.90;;;;;;2071609;28;20069;-76
2021/03/02 00:32:10;;;;;;;17.10;13.02;;;2.70;99.90;;;;;;2071933;28;20042;-75
2021/03/02 00:33:12;;;;;;;21.45;15.02;;;2.70;99.90;;;;;;2064211;28;20026;-74
2021/03/02 00:34:13;;;;;;;16.52;12.82;;;2.70;99.90;;;;;;2064239;28;20023;-75
2021/03/02 00:35:15;;;;;;;18.27;12.95;;;2.70;99.90;;;;;;2064044;28;20029;-76
2021/03/02 00:36:15;;;;;;;17.40;12.60;;;2.70;99.90;;;;;;2064269;28;20022;-76
2021/03/02 00:37:17;;;;;;;19.40;13.32;;;2.70;99.90;;;;;;2071430;28;20022;-76
2021/03/02 00:38:17;;;;;;;17.15;13.30;;;2.70;99.90;;;;;;2071490;28;20041;-75
2021/03/02 00:39:18;;;;;;;16.48;12.63;;;2.70;99.90;;;;;;2064176;28;20018;-76
2021/03/02 00:40:19;;;;;;;18.02;13.02;;;2.70;99.90;;;;;;2063495;28;20114;-77
2021/03/02 00:41:19;;;;;;;20.92;14.43;;;2.70;99.90;;;;;;2063408;28;20437;-75
2021/03/02 00:42:20;;;;;;;17.55;13.55;;;2.60;99.90;;;;;;2064335;28;20030;-77
2021/03/02 00:43:21;;;;;;;19.00;13.57;;;2.60;99.90;;;;;;2064198;28;20018;-75
2021/03/02 00:44:21;;;;;;;17.80;13.48;;;2.60;99.90;;;;;;2064209;28;20081;-74
2021/03/02 00:45:22;;;;;;;20.67;14.40;;;2.60;99.90;;;;;;2064157;28;20037;-75
2021/03/02 00:46:23;;;;;;;14.57;11.57;;;2.60;99.90;;;;;;2071540;28;20026;-74
2021/03/02 00:47:24;;;;;;;18.55;13.57;;;2.60;99.90;;;;;;2071310;28;20029;-74
2021/03/02 00:48:25;;;;;;;18.90;13.38;;;2.60;99.90;;;;;;2064068;28;20030;-75
2021/03/02 00:49:26;;;;;;;16.02;12.68;;;2.60;99.90;;;;;;2064394;28;20027;-75
2021/03/02 00:50:28;;;;;;;18.33;13.02;;;2.60;99.90;;;;;;2064173;28;20032;-74
2021/03/02 00:51:28;;;;;;;16.00;12.95;;;2.60;99.90;;;;;;2064281;28;20023;-75
2021/03/02 00:52:29;;;;;;;17.65;13.70;;;2.60;99.90;;;;;;2064260;28;20109;-74
2021/03/02 00:53:29;;;;;;;18.05;13.88;;;2.60;99.90;;;;;;2071449;28;20018;-76
2021/03/02 00:54:30;;;;;;;18.88;13.75;;;2.60;99.90;;;;;;2071600;28;20029;-74
2021/03/02 00:55:31;;;;;;;18.98;15.13;;;2.60;99.90;;;;;;2071696;28;20064;-74
2021/03/02 00:56:31;;;;;;;21.38;16.45;;;2.60;99.90;;;;;;2071436;28;20025;-75
2021/03/02 00:57:32;;;;;;;20.92;16.20;;;2.60;99.90;;;;;;2063936;28;20469;-75
2021/03/02 00:58:33;;;;;;;19.42;14.77;;;2.60;99.90;;;;;;2063783;28;20034;-74
2021/03/02 00:59:33;;;;;;;19.20;15.63;;;2.60;99.90;;;;;;2064285;28;20069;-74
2021/03/02 01:00:34;;;;;;;22.85;16.13;;;2.60;99.90;;;;;;2064156;28;20029;-76
2021/03/02 01:01:34;;;;;;;18.73;15.40;;;2.60;99.90;;;;;;2064233;28;20424;-75
2021/03/02 01:02:36;;;;;;;26.77;17.42;;;2.60;99.90;;;;;;2063476;28;20084;-76
2021/03/02 01:03:37;;;;;;;26.27;19.23;;;2.60;99.90;;;;;;2063622;28;20011;-75
2021/03/02 01:04:37;;;;;;;26.65;18.98;;;2.60;99.90;;;;;;2064194;28;20492;-75
2021/03/02 01:05:38;;;;;;;23.05;17.75;;;2.60;99.90;;;;;;2071382;28;20052;-75
2021/03/02 01:06:39;;;;;;;25.98;18.52;;;2.60;99.90;;;;;;2071526;28;20026;-75
2021/03/02 01:07:40;;;;;;;29.15;20.77;;;2.60;99.90;;;;;;2063747;28;20031;-74
2021/03/02 01:08:40;;;;;;;27.00;19.92;;;2.60;99.90;;;;;;2063570;28;20466;-74
2021/03/02 01:09:41;;;;;;;25.70;18.73;;;2.70;99.90;;;;;;2063973;28;20026;-75
2021/03/02 01:10:42;;;;;;;32.83;21.10;;;2.70;99.90;;;;;;2063911;28;20471;-75
2021/03/02 01:11:42;;;;;;;32.33;21.77;;;2.70;99.90;;;;;;2064101;28;20072;-74
2021/03/02 01:12:43;;;;;;;27.88;20.85;;;2.70;99.90;;;;;;2063981;28;20084;-75
2021/03/02 01:13:44;;;;;;;28.67;21.00;;;2.80;99.90;;;;;;2064169;28;20027;-75
2021/03/02 01:14:44;;;;;;;29.83;21.73;;;2.80;99.90;;;;;;2064118;28;20037;-77
2021/03/02 01:15:45;;;;;;;31.25;21.85;;;2.80;99.90;;;;;;2063968;28;20049;-75
2021/03/02 01:16:45;;;;;;;29.70;21.65;;;2.80;99.90;;;;;;2070854;28;20030;-75
2021/03/02 01:17:46;;;;;;;32.90;20.55;;;2.80;99.90;;;;;;2071670;28;20503;-75
2021/03/02 01:18:47;;;;;;;28.33;20.20;;;2.90;99.90;;;;;;2063913;28;20120;-75
2021/03/02 01:19:47;;;;;;;31.95;21.65;;;2.90;99.90;;;;;;2064143;28;20027;-75
2021/03/02 01:20:48;;;;;;;29.23;20.50;;;2.90;99.90;;;;;;2071520;28;20389;-76
2021/03/02 01:21:49;;;;;;;28.35;21.02;;;2.90;99.90;;;;;;2071626;28;20080;-76
2021/03/02 01:22:50;;;;;;;29.83;21.83;;;2.90;99.90;;;;;;2071308;28;20037;-74
2021/03/02 01:23:50;;;;;;;27.60;20.33;;;3.00;99.90;;;;;;2071549;28;20519;-76
2021/03/02 01:24:51;;;;;;;31.58;21.63;;;3.00;99.90;;;;;;2064106;28;20058;-75
2021/03/02 01:25:51;;;;;;;30.95;20.92;;;3.00;99.90;;;;;;2064072;28;20037;-75
2021/03/02 01:26:52;;;;;;;29.10;20.88;;;3.00;99.90;;;;;;2063647;28;20026;-74
2021/03/02 01:27:53;;;;;;;27.45;20.70;;;3.00;99.90;;;;;;2064042;28;20034;-74
2021/03/02 01:28:53;;;;;;;29.52;21.23;;;3.00;99.90;;;;;;2063547;28;20018;-75
2021/03/02 01:29:54;;;;;;;25.50;20.02;;;3.00;99.90;;;;;;2063633;28;20026;-75
2021/03/02 01:30:54;;;;;;;30.83;21.20;;;3.00;99.90;;;;;;2064099;28;20101;-74
2021/03/02 01:31:55;;;;;;;28.65;19.92;;;3.00;99.90;;;;;;2064110;28;20034;-74
2021/03/02 01:32:56;;;;;;;31.10;20.90;;;3.00;99.90;;;;;;2063904;28;20027;-75
2021/03/02 01:33:56;;;;;;;29.35;20.85;;;3.00;99.90;;;;;;2063341;28;20556;-75
2021/03/02 01:34:57;;;;;;;29.88;21.10;;;3.10;99.90;;;;;;2063196;28;20082;-75
2021/03/02 01:35:58;;;;;;;27.65;20.27;;;3.10;99.90;;;;;;2064149;28;20026;-76
2021/03/02 01:36:59;;;;;;;26.60;20.52;;;3.10;99.90;;;;;;2071040;28;20668;-75
2021/03/02 01:38:00;;;;;;;25.85;19.17;;;3.10;99.90;;;;;;2071157;28;20412;-75
2021/03/02 01:39:01;;;;;;;26.42;20.73;;;3.10;99.90;;;;;;2064099;28;20061;-75
2021/03/02 01:40:08;;;;;;;30.88;20.10;;;3.10;99.90;;;;;;2063624;28;20088;-76
2021/03/02 01:41:09;;;;;;;25.67;19.67;;;3.10;99.90;;;;;;2063600;28;20114;-75
2021/03/02 01:42:10;;;;;;;27.35;19.92;;;3.10;99.90;;;;;;2063970;28;20018;-75
2021/03/02 01:43:13;;;;;;;28.15;19.25;;;3.10;99.90;;;;;;2064053;28;20125;-75
2021/03/02 01:44:13;;;;;;;28.88;18.88;;;3.20;99.90;;;;;;2063926;28;20018;-76
2021/03/02 01:45:17;;;;;;;25.27;19.42;;;3.10;99.90;;;;;;2063705;28;20502;-75
2021/03/02 01:46:18;;;;;;;27.60;20.25;;;3.20;99.90;;;;;;2063857;28;20748;-75
2021/03/02 01:47:19;;;;;;;26.90;19.58;;;3.10;99.90;;;;;;2063337;28;20053;-75
2021/03/02 01:48:19;;;;;;;26.83;18.52;;;3.20;99.90;;;;;;2063688;28;20037;-75
2021/03/02 01:49:20;;;;;;;25.48;19.20;;;3.10;99.90;;;;;;2071384;28;20029;-75
2021/03/02 01:50:22;;;;;;;26.63;19.88;;;3.20;99.90;;;;;;2071576;28;20133;-75
2021/03/02 01:51:23;;;;;;;29.15;20.98;;;3.20;99.90;;;;;;2064017;28;20080;-76
2021/03/02 01:52:24;;;;;;;27.88;20.38;;;3.20;99.90;;;;;;2063668;28;20097;-75
2021/03/02 01:53:24;;;;;;;28.60;21.65;;;3.20;99.90;;;;;;2063997;28;20038;-76
2021/03/02 01:54:26;;;;;;;29.65;19.77;;;3.20;99.90;;;;;;2063632;28;20026;-74
2021/03/02 01:55:27;;;;;;;26.13;19.67;;;3.20;99.90;;;;;;2071279;28;20081;-75
2021/03/02 01:56:28;;;;;;;27.42;19.88;;;3.20;99.90;;;;;;2071249;28;20101;-74
2021/03/02 01:57:28;;;;;;;25.10;18.23;;;3.20;99.90;;;;;;2063662;28;20382;-75
2021/03/02 01:58:30;;;;;;;29.45;18.50;;;3.20;99.90;;;;;;2062963;28;20117;-75
2021/03/02 01:59:30;;;;;;;23.20;18.35;;;3.20;99.90;;;;;;2063417;28;20096;-74
2021/03/02 02:00:35;;;;;;;22.50;17.67;;;3.20;99.90;;;;;;2063356;28;20069;-75
2021/03/02 02:01:36;;;;;;;24.65;18.30;;;3.20;99.90;;;;;;2064008;28;20049;-75
2021/03/02 02:02:51;;;;;;;23.60;17.88;;;3.20;99.90;;;;;;2063626;28;20473;-75
2021/03/02 02:07:53;;;;;;;26.70;17.23;;;3.10;99.90;;;;;;2063980;28;20018;-75
2021/03/02 02:09:15;;;;;;;23.70;17.13;;;3.10;99.90;;;;;;2071046;28;20022;-75
2021/03/02 02:10:23;;;;;;;23.67;18.15;;;3.10;99.90;;;;;;2068487;28;20026;-75
2021/03/02 02:11:33;;;;;;;25.10;18.90;;;3.00;99.90;;;;;;2063167;28;20438;-76
2021/03/02 02:12:36;;;;;;;;;;;3.00;99.90;;;;;;2063858;28;20033;-75
2021/03/02 02:13:41;;;;;;;24.20;16.90;;;2.90;99.90;;;;;;2063863;28;19905;-75
2021/03/02 02:14:54;;;;;;;25.90;17.95;;;3.00;99.90;;;;;;2063190;28;20023;-75
2021/03/02 02:15:58;;;;;;;24.08;18.33;;;3.00;99.90;;;;;;2063194;28;20026;-75
2021/03/02 02:17:04;;;;;;;24.23;18.23;;;3.00;99.90;;;;;;2070686;28;20478;-75
2021/03/02 02:18:21;;;;;;;25.90;18.70;;;3.00;99.90;;;;;;2070552;28;20022;-75
2021/03/02 02:19:47;;;;;;;25.17;18.45;;;3.00;99.90;;;;;;2063881;28;20042;-76
2021/03/02 02:21:03;;;;;;;22.00;16.35;;;3.00;99.90;;;;;;2063514;28;20037;-76
2021/03/02 02:22:13;;;;;;;25.55;19.45;;;3.00;99.90;;;;;;2063445;28;20029;-76
2021/03/02 02:23:51;;;;;;;26.85;17.73;;;2.90;99.90;;;;;;2063416;28;20379;-75
2021/03/02 02:25:09;;;;;;;25.58;18.75;;;2.90;99.90;;;;;;2063393;28;20034;-75
2021/03/02 02:26:37;;;;;;;22.92;18.98;;;2.90;99.90;;;;;;2063229;28;20026;-75
2021/03/02 02:27:39;;;;;;;26.13;18.35;;;2.90;99.90;;;;;;2063099;28;20018;-75
2021/03/02 02:28:41;;;;;;;26.88;18.35;;;2.90;99.90;;;;;;2063511;28;20030;-75
2021/03/02 02:29:42;;;;;;;31.75;19.20;;;2.90;99.90;;;;;;2063622;28;20374;-75
2021/03/02 02:30:46;;;;;;;23.23;17.55;;;2.90;99.90;;;;;;2071090;28;20068;-75
2021/03/02 02:31:48;;;;;;;24.38;17.77;;;2.90;99.90;;;;;;2070923;28;20630;-75
2021/03/02 02:32:51;;;;;;;24.25;19.77;;;2.90;99.90;;;;;;2063599;28;20036;-75
2021/03/02 02:33:52;;;;;;;22.17;17.90;;;3.00;99.90;;;;;;2063437;28;20034;-76
2021/03/02 02:34:55;;;;;;;22.85;18.05;;;2.90;99.90;;;;;;2063716;28;20452;-74
2021/03/02 02:35:56;;;;;;;25.05;19.20;;;2.90;99.90;;;;;;2071249;28;20030;-75
2021/03/02 02:36:59;;;;;;;21.67;16.42;;;2.90;99.90;;;;;;2070591;28;20022;-75
2021/03/02 02:38:04;;;;;;;23.25;16.88;;;2.90;99.90;;;;;;2070861;28;20030;-76
2021/03/02 02:39:06;;;;;;;29.90;18.95;;;2.90;99.90;;;;;;2070706;28;20030;-76
2021/03/02 02:40:07;;;;;;;24.90;18.83;;;2.90;99.90;;;;;;2062869;28;20049;-75
2021/03/02 02:41:09;;;;;;;25.58;18.83;;;2.90;99.90;;;;;;2062990;28;20042;-75
2021/03/02 02:42:10;;;;;;;25.05;17.38;;;2.90;99.90;;;;;;2063665;28;20038;-74
2021/03/02 02:43:12;;;;;;;25.83;17.55;;;2.90;99.90;;;;;;2063646;28;20106;-75
2021/03/02 02:44:14;;;;;;;24.08;18.55;;;2.90;99.90;;;;;;2072455;28;20050;-75
2021/03/02 02:45:16;;;;;;;25.35;18.30;;;2.90;99.90;;;;;;2072440;28;20026;-76
2021/03/02 02:46:18;;;;;;;22.63;16.50;;;2.90;99.90;;;;;;2072612;28;20028;-75
2021/03/02 02:47:19;;;;;;;22.38;16.90;;;2.90;99.90;;;;;;2072277;28;20020;-76
2021/03/02 02:48:20;;;;;;;28.77;19.20;;;2.90;99.90;;;;;;2072440;28;20030;-74
2021/03/02 02:49:21;;;;;;;24.73;17.75;;;2.90;99.90;;;;;;2065311;28;20062;-75
2021/03/02 02:50:21;;;;;;;22.77;18.08;;;2.90;99.90;;;;;;2065250;28;20403;-76
2021/03/02 02:51:23;;;;;;;24.95;18.77;;;2.90;99.90;;;;;;2072298;28;20030;-75
2021/03/02 02:52:24;;;;;;;20.70;16.00;;;2.90;99.90;;;;;;2072688;28;20022;-76
2021/03/02 02:53:25;;;;;;;24.02;18.38;;;2.90;99.90;;;;;;2065133;28;20018;-75
2021/03/02 02:54:26;;;;;;;21.30;15.73;;;2.90;99.90;;;;;;2064305;28;20598;-75
2021/03/02 02:55:40;;;;;;;20.77;15.13;;;2.90;99.90;;;;;;2064196;28;20474;-75
2021/03/02 02:56:43;;;;;;;22.95;17.45;;;2.90;99.90;;;;;;2064258;28;20109;-75
2021/03/02 02:57:48;;;;;;;21.95;16.67;;;2.90;99.90;;;;;;2064586;28;20029;-76
2021/03/02 02:59:01;;;;;;;21.33;16.45;;;2.90;99.90;;;;;;2064897;28;20031;-75
2021/03/02 03:00:05;;;;;;;20.75;16.90;;;2.80;99.90;;;;;;2072664;28;20026;-75
2021/03/02 03:01:08;;;;;;;24.75;18.42;;;2.80;99.90;;;;;;2072543;28;20029;-75
2021/03/02 03:02:13;;;;;;;15.88;13.60;;;2.80;99.90;;;;;;2065193;28;20085;-75
2021/03/02 03:03:21;;;;;;;21.65;16.15;;;2.80;99.90;;;;;;2064902;28;20027;-76
2021/03/02 03:04:27;;;;;;;23.38;17.63;;;2.80;99.90;;;;;;2065747;28;20019;-74
2021/03/02 03:05:29;;;;;;;21.02;15.60;;;2.80;99.90;;;;;;2064972;28;20026;-75
2021/03/02 03:06:30;;;;;;;20.52;15.95;;;2.80;99.90;;;;;;2065157;28;20527;-75
2021/03/02 03:07:40;;;;;;;22.75;16.05;;;2.80;99.90;;;;;;2072807;28;20076;-76
2021/03/02 03:08:49;;;;;;;22.33;15.40;;;2.80;99.90;;;;;;2072811;28;20038;-75
2021/03/02 03:09:52;;;;;;;21.40;15.07;;;2.70;99.90;;;;;;2072245;28;20053;-75
2021/03/02 03:10:54;;;;;;;21.70;15.27;;;2.70;99.90;;;;;;2065536;28;20261;-76
2021/03/02 03:12:00;;;;;;;21.52;17.17;;;2.70;99.90;;;;;;2073202;28;20034;-76
2021/03/02 03:13:05;;;;;;;18.92;14.90;;;2.70;99.90;;;;;;2072437;28;20096;-76
2021/03/02 03:14:08;;;;;;;21.63;15.77;;;2.70;99.90;;;;;;2065170;28;20053;-75
2021/03/02 03:15:10;;;;;;;22.90;16.10;;;2.70;99.90;;;;;;2064310;28;20026;-74
2021/03/02 03:16:12;;;;;;;21.77;16.35;;;2.70;99.90;;;;;;2064777;28;20031;-75
2021/03/02 03:17:15;;;;;;;25.05;16.80;;;2.70;99.90;;;;;;2072292;28;20057;-76
2021/03/02 03:18:19;;;;;;;21.20;13.23;;;2.70;99.90;;;;;;2072857;28;20083;-75
2021/03/02 03:19:27;;;;;;;19.05;15.30;;;2.70;99.90;;;;;;2073130;28;20022;-75
2021/03/02 03:20:28;;;;;;;22.75;16.08;;;2.70;99.90;;;;;;2072155;28;20022;-75
2021/03/02 03:21:31;;;;;;;19.83;14.02;;;2.70;99.90;;;;;;2065686;28;20014;-77
2021/03/02 03:22:34;;;;;;;23.25;16.08;;;2.70;99.90;;;;;;2065796;28;20023;-75
2021/03/02 03:23:35;;;;;;;24.35;15.95;;;2.60;99.90;;;;;;2065455;28;20512;-75
2021/03/02 03:24:36;;;;;;;23.50;16.55;;;2.60;99.90;;;;;;2065798;28;20022;-75
2021/03/02 03:25:37;;;;;;;21.67;15.73;;;2.60;99.90;;;;;;2065560;28;20470;-76
2021/03/02 03:26:39;;;;;;;20.63;15.70;;;2.60;99.90;;;;;;2065218;28;20097;-75
2021/03/02 03:27:43;;;;;;;24.50;17.17;;;2.60;99.90;;;;;;2064685;28;20026;-75
2021/03/02 03:28:47;;;;;;;21.13;15.52;;;2.60;99.90;;;;;;2064872;28;20075;-75
2021/03/02 03:29:49;;;;;;;21.98;16.83;;;2.60;99.90;;;;;;2065612;28;20033;-75
2021/03/02 03:30:51;;;;;;;19.13;14.68;;;2.60;99.90;;;;;;2065590;28;20153;-76
2021/03/02 03:31:57;;;;;;;20.08;13.57;;;2.60;99.90;;;;;;2065265;28;20026;-76
2021/03/02 03:33:02;;;;;;;20.30;16.00;;;2.60;99.90;;;;;;2065486;28;20238;-75
2021/03/02 03:34:03;;;;;;;24.50;15.88;;;2.60;99.90;;;;;;2065417;28;20385;-75
2021/03/02 03:35:05;;;;;;;24.52;16.02;;;2.60;99.90;;;;;;2065491;28;20027;-75
2021/03/02 03:36:06;;;;;;;21.33;16.40;;;2.50;99.90;;;;;;2065473;28;20026;-75
2021/03/02 03:37:07;;;;;;;19.23;15.30;;;2.50;99.90;;;;;;2065322;28;20101;-76
2021/03/02 03:38:08;;;;;;;21.02;16.33;;;2.50;99.90;;;;;;2065058;28;20509;-75
2021/03/02 03:39:09;;;;;;;21.13;15.68;;;2.50;99.90;;;;;;2065453;28;20362;-77
2021/03/02 03:40:10;;;;;;;18.30;14.63;;;2.50;99.90;;;;;;2064931;28;20493;-75
2021/03/02 03:41:14;;;;;;;17.70;13.35;;;2.50;99.90;;;;;;2064945;28;20061;-75
2021/03/02 03:42:14;;;;;;;22.00;16.38;;;2.50;99.90;;;;;;2065548;28;20030;-76
2021/03/02 03:43:15;;;;;;;17.98;13.68;;;2.50;99.90;;;;;;2065386;28;20049;-76
2021/03/02 03:44:16;;;;;;;18.92;15.00;;;2.50;99.90;;;;;;2072653;28;20351;-77
2021/03/02 03:45:17;;;;;;;18.90;14.45;;;2.50;99.90;;;;;;2072964;28;20022;-75
2021/03/02 03:46:17;;;;;;;21.67;15.57;;;2.50;99.90;;;;;;2073012;28;20026;-75
2021/03/02 03:47:18;;;;;;;19.20;14.77;;;2.50;99.90;;;;;;2065045;28;20027;-77
2021/03/02 03:48:19;;;;;;;20.35;13.77;;;2.50;99.90;;;;;;2065383;28;20030;-75
2021/03/02 03:49:19;;;;;;;20.30;15.10;;;2.50;99.90;;;;;;2064710;28;20474;-76
2021/03/02 03:50:20;;;;;;;18.08;13.68;;;2.50;99.90;;;;;;2064789;28;20061;-75
2021/03/02 03:51:26;;;;;;;18.52;14.73;;;2.50;99.90;;;;;;2072885;28;20607;-74
2021/03/02 03:52:27;;;;;;;15.63;12.10;;;2.50;99.90;;;;;;2072482;28;20030;-76
2021/03/02 03:53:32;;;;;;;21.77;14.05;;;2.50;99.90;;;;;;2065362;28;20026;-75
2021/03/02 03:54:34;;;;;;;19.67;14.75;;;2.50;99.90;;;;;;2065314;28;20033;-76
2021/03/02 03:55:39;;;;;;;16.90;13.85;;;2.50;99.90;;;;;;2064181;28;20173;-76
2021/03/02 03:56:43;;;;;;;21.40;14.95;;;2.50;99.90;;;;;;2065266;28;20022;-76
2021/03/02 03:57:45;;;;;;;20.75;15.48;;;2.50;99.90;;;;;;2064661;28;20026;-76
2021/03/02 03:58:46;;;;;;;21.40;15.32;;;2.50;99.90;;;;;;2064386;28;20474;-76
2021/03/02 03:59:48;;;;;;;20.00;15.20;;;2.40;99.90;;;;;;2065305;28;20668;-75
2021/03/02 04:00:52;;;;;;;22.92;16.25;;;2.40;99.90;;;;;;2065332;28;20501;-77
2021/03/02 04:01:55;;;;;;;21.25;14.77;;;2.40;99.90;;;;;;2064628;28;20474;-76
2021/03/02 04:02:56;;;;;;;18.27;14.38;;;2.40;99.90;;;;;;2064889;28;20025;-76
2021/03/02 04:03:57;;;;;;;16.25;12.98;;;2.40;99.90;;;;;;2064762;28;20022;-76
2021/03/02 04:04:58;;;;;;;17.98;14.50;;;2.40;99.90;;;;;;2064614;28;20022;-75
2021/03/02 04:06:00;;;;;;;20.00;14.73;;;2.40;99.90;;;;;;2072351;28;20022;-75
2021/03/02 04:07:01;;;;;;;20.27;14.02;;;2.40;99.90;;;;;;2071605;28;20022;-75
2021/03/02 04:08:03;;;;;;;19.27;16.02;;;2.40;99.90;;;;;;2064690;28;20023;-75
2021/03/02 04:09:04;;;;;;;20.00;13.07;;;2.40;99.90;;;;;;2072101;28;20026;-76
2021/03/02 04:10:08;;;;;;;17.17;14.23;;;2.40;99.90;;;;;;2072008;28;20024;-75
2021/03/02 04:11:08;;;;;;;16.05;12.68;;;2.40;99.90;;;;;;2063874;28;20033;-75
2021/03/02 04:12:10;;;;;;;19.50;14.30;;;2.40;99.90;;;;;;2072016;28;20030;-76
2021/03/02 04:13:12;;;;;;;17.85;14.25;;;2.40;99.90;;;;;;2071781;28;20072;-75
2021/03/02 04:14:13;;;;;;;17.75;13.85;;;2.40;99.90;;;;;;2063616;28;20022;-75
2021/03/02 04:15:16;;;;;;;20.45;14.93;;;2.30;99.90;;;;;;2063957;28;20023;-75
2021/03/02 04:16:17;;;;;;;16.75;13.38;;;2.30;99.90;;;;;;2064709;28;20050;-75
2021/03/02 04:17:17;;;;;;;19.63;15.52;;;2.30;99.90;;;;;;2064081;28;20027;-76
2021/03/02 04:18:19;;;;;;;19.55;15.13;;;2.30;99.90;;;;;;2063680;28;20084;-75
2021/03/02 04:19:19;;;;;;;18.38;14.13;;;2.30;99.90;;;;;;2063636;28;20367;-75
2021/03/02 04:20:21;;;;;;;20.92;15.23;;;2.30;99.90;;;;;;2064591;28;20104;-76
2021/03/02 04:21:21;;;;;;;21.17;15.23;;;2.30;99.90;;;;;;2064667;28;20021;-76
2021/03/02 04:22:22;;;;;;;18.25;14.13;;;2.30;99.90;;;;;;2064504;28;20027;-76
2021/03/02 04:23:22;;;;;;;18.33;13.52;;;2.30;99.90;;;;;;2071972;28;20057;-76
2021/03/02 04:24:23;;;;;;;18.40;14.50;;;2.30;99.90;;;;;;2071919;28;20022;-75
2021/03/02 04:25:24;;;;;;;19.10;14.77;;;2.30;99.90;;;;;;2064068;28;20186;-76
2021/03/02 04:26:24;;;;;;;18.55;15.77;;;2.30;99.90;;;;;;2064515;28;20014;-75
2021/03/02 04:27:25;;;;;;;17.48;14.70;;;2.30;99.90;;;;;;2064168;28;20023;-75
2021/03/02 04:28:25;;;;;;;18.60;13.70;;;2.30;99.90;;;;;;2064350;28;20057;-76
2021/03/02 04:29:26;;;;;;;18.45;13.90;;;2.30;99.90;;;;;;2064264;28;20107;-75
2021/03/02 04:30:27;;;;;;;18.02;14.30;;;2.30;99.90;;;;;;2064320;28;20059;-75
2021/03/02 04:31:27;;;;;;;16.45;13.38;;;2.30;99.90;;;;;;2071749;28;20442;-75
2021/03/02 04:32:28;;;;;;;18.70;15.10;;;2.30;99.90;;;;;;2063695;28;20454;-75
2021/03/02 04:33:29;;;;;;;16.92;13.55;;;2.30;99.90;;;;;;2063986;28;20038;-76
2021/03/02 04:34:29;;;;;;;19.33;15.20;;;2.30;99.90;;;;;;2064073;28;20033;-75
2021/03/02 04:35:30;;;;;;;22.08;16.67;;;2.30;99.90;;;;;;2064334;28;20097;-76
2021/03/02 04:36:31;;;;;;;20.52;14.98;;;2.30;99.90;;;;;;2071396;28;20661;-75
2021/03/02 04:37:31;;;;;;;18.60;14.27;;;2.30;99.90;;;;;;2071483;28;20065;-75
2021/03/02 04:38:32;;;;;;;23.75;13.85;;;2.30;99.90;;;;;;2071592;28;20468;-76
2021/03/02 04:39:32;;;;;;;17.65;13.20;;;2.30;99.90;;;;;;2071963;28;20025;-76
2021/03/02 04:40:33;;;;;;;19.10;13.75;;;2.20;99.90;;;;;;2064369;28;20029;-76
2021/03/02 04:41:34;;;;;;;19.15;14.93;;;2.20;99.90;;;;;;2064259;28;20022;-76
2021/03/02 04:42:35;;;;;;;16.35;12.63;;;2.20;99.90;;;;;;2064158;28;20030;-75
2021/03/02 04:43:36;;;;;;;16.02;13.10;;;2.20;99.90;;;;;;2063525;28;20061;-75
2021/03/02 04:44:37;;;;;;;17.00;13.77;;;2.20;99.90;;;;;;2063737;28;20072;-76
2021/03/02 04:45:38;;;;;;;20.38;15.43;;;2.20;99.90;;;;;;2071656;28;20667;-75
2021/03/02 04:46:38;;;;;;;23.73;16.55;;;2.20;99.90;;;;;;2063586;28;20077;-76
2021/03/02 04:47:42;;;;;;;22.00;16.98;;;2.20;99.90;;;;;;2063321;28;20025;-75
2021/03/02 04:48:42;;;;;;;23.63;16.98;;;2.20;99.90;;;;;;2071180;28;20025;-76
2021/03/02 04:49:43;;;;;;;20.77;15.95;;;2.20;99.90;;;;;;2063997;28;20026;-75
2021/03/02 04:50:43;;;;;;;20.92;14.68;;;2.20;99.90;;;;;;2064145;28;20429;-77
2021/03/02 04:51:44;;;;;;;22.65;16.63;;;2.20;99.90;;;;;;2064271;28;20029;-75
2021/03/02 04:52:45;;;;;;;21.73;17.33;;;2.20;99.90;;;;;;2064377;28;20037;-76
2021/03/02 04:53:46;;;;;;;21.90;17.15;;;2.20;99.90;;;;;;2064120;28;20030;-76
2021/03/02 04:54:46;;;;;;;20.70;15.32;;;2.20;99.90;;;;;;2071436;28;20393;-76
2021/03/02 04:55:47;;;;;;;20.88;15.85;;;2.20;99.90;;;;;;2063499;28;20073;-76
2021/03/02 04:56:47;;;;;;;24.40;17.02;;;2.20;99.90;;;;;;2063193;28;20041;-75
2021/03/02 04:57:48;;;;;;;26.17;18.52;;;2.20;99.90;;;;;;2064295;28;20030;-74
2021/03/02 04:58:48;;;;;;;20.85;15.45;;;2.20;99.90;;;;;;2063978;28;20034;-76
2021/03/02 04:59:49;;;;;;;21.33;16.92;;;2.20;99.90;;;;;;2064219;28;20096;-75
2021/03/02 05:00:50;;;;;;;22.13;16.80;;;2.20;99.90;;;;;;2071447;28;20097;-76
2021/03/02 05:01:50;;;;;;;21.83;15.57;;;2.20;99.90;;;;;;2071733;28;20048;-76
2021/03/02 05:02:51;;;;;;;24.77;16.80;;;2.20;99.90;;;;;;2064197;28;20029;-75
2021/03/02 05:03:51;;;;;;;20.42;16.63;;;2.20;99.90;;;;;;2064065;28;20023;-76
2021/03/02 05:04:52;;;;;;;24.90;17.10;;;2.20;99.90;;;;;;2071491;28;20026;-76
2021/03/02 05:05:53;;;;;;;21.23;16.85;;;2.20;99.90;;;;;;2071790;28;20022;-75
2021/03/02 05:06:53;;;;;;;22.60;16.88;;;2.20;99.90;;;;;;2063118;28;20057;-75
2021/03/02 05:07:54;;;;;;;21.17;16.10;;;2.10;99.90;;;;;;2063687;28;20058;-76
2021/03/02 05:08:55;;;;;;;23.55;16.58;;;2.10;99.90;;;;;;2064037;28;20025;-75
2021/03/02 05:09:55;;;;;;;17.40;14.02;;;2.10;99.90;;;;;;2063506;28;20532;-75
2021/03/02 05:10:56;;;;;;;22.08;15.32;;;2.10;99.90;;;;;;2064213;28;20033;-75
2021/03/02 05:11:56;;;;;;;21.70;16.88;;;2.10;99.90;;;;;;2063995;28;20079;-77
2021/03/02 05:12:57;;;;;;;18.73;14.85;;;2.20;99.90;;;;;;2064064;28;20060;-76
2021/03/02 05:13:58;;;;;;;16.42;13.00;;;2.10;99.90;;;;;;2064021;28;20022;-76
2021/03/02 05:14:58;;;;;;;20.70;15.50;;;2.10;99.90;;;;;;2071525;28;20719;-76
2021/03/02 05:15:59;;;;;;;22.30;16.08;;;2.20;99.90;;;;;;2071718;28;20030;-76
2021/03/02 05:16:59;;;;;;;18.70;14.45;;;2.20;99.90;;;;;;2063269;28;20062;-75
2021/03/02 05:18:00;;;;;;;24.00;15.80;;;2.20;99.90;;;;;;2063255;28;20049;-74
2021/03/02 05:19:00;;;;;;;20.35;14.98;;;2.20;99.90;;;;;;2063318;28;20382;-74
2021/03/02 05:20:03;;;;;;;20.98;15.32;;;2.20;99.90;;;;;;2064123;28;20023;-75
2021/03/02 05:21:04;;;;;;;21.48;16.13;;;2.20;99.90;;;;;;2064181;28;20497;-76
2021/03/02 05:22:04;;;;;;;14.25;12.10;;;2.20;99.90;;;;;;2064258;28;20105;-76
2021/03/02 05:23:05;;;;;;;19.25;15.73;;;2.10;99.90;;;;;;2064098;28;20382;-75
2021/03/02 05:24:06;;;;;;;19.73;14.90;;;2.10;99.90;;;;;;2063305;28;20113;-77
2021/03/02 05:25:07;;;;;;;18.85;14.55;;;2.10;99.90;;;;;;2063219;28;20098;-76